sensor_id;sensor_type;location;lat;lon;timestamp;temperature;humidity
15967;DHT22;15175;48.154;11.534;2023-05-29T00:00:07;16.80;96.60
15967;DHT22;15175;48.154;11.534;2023-05-29T00:02:39;16.80;97.30
15967;DHT22;15175;48.154;11.534;2023-05-29T00:05:11;16.70;97.10
15967;DHT22;15175;48.154;11.534;2023-05-29T00:07:38;16.70;97.20
15967;DHT22;15175;48.154;11.534;2023-05-29T00:10:07;16.70;97.00
15967;DHT22;15175;48.154;11.534;2023-05-29T00:12:35;16.60;97.60
15967;DHT22;15175;48.154;11.534;2023-05-29T00:15:03;16.60;97.80
15967;DHT22;15175;48.154;11.534;2023-05-29T00:17:30;16.70;97.80
15967;DHT22;15175;48.154;11.534;2023-05-29T00:19:57;16.60;97.90
15967;DHT22;15175;48.154;11.534;2023-05-29T00:22:28;16.60;98.00
15967;DHT22;15175;48.154;11.534;2023-05-29T00:24:55;16.50;98.10
15967;DHT22;15175;48.154;11.534;2023-05-29T00:27:22;16.50;98.30
15967;DHT22;15175;48.154;11.534;2023-05-29T00:29:50;16.50;98.30
15967;DHT22;15175;48.154;11.534;2023-05-29T00:32:17;16.50;98.10
15967;DHT22;15175;48.154;11.534;2023-05-29T00:34:44;16.50;98.60
15967;DHT22;15175;48.154;11.534;2023-05-29T00:37:11;16.40;98.60
15967;DHT22;15175;48.154;11.534;2023-05-29T00:39:40;16.40;98.70
15967;DHT22;15175;48.154;11.534;2023-05-29T00:42:07;16.40;98.90
15967;DHT22;15175;48.154;11.534;2023-05-29T00:44:34;16.30;99.00
15967;DHT22;15175;48.154;11.534;2023-05-29T00:47:02;16.30;99.30
15967;DHT22;15175;48.154;11.534;2023-05-29T00:49:29;16.30;99.40
15967;DHT22;15175;48.154;11.534;2023-05-29T00:51:56;16.20;99.30
15967;DHT22;15175;48.154;11.534;2023-05-29T00:54:26;16.10;99.30
15967;DHT22;15175;48.154;11.534;2023-05-29T00:56:57;16.10;99.40
15967;DHT22;15175;48.154;11.534;2023-05-29T00:59:26;16.10;99.90
15967;DHT22;15175;48.154;11.534;2023-05-29T01:01:53;16.00;99.80
15967;DHT22;15175;48.154;11.534;2023-05-29T01:04:22;16.00;99.90
15967;DHT22;15175;48.154;11.534;2023-05-29T01:06:51;15.90;99.90
15967;DHT22;15175;48.154;11.534;2023-05-29T01:09:18;15.90;99.90
15967;DHT22;15175;48.154;11.534;2023-05-29T01:11:53;15.90;99.90
15967;DHT22;15175;48.154;11.534;2023-05-29T01:14:28;15.80;99.90
15967;DHT22;15175;48.154;11.534;2023-05-29T01:17:05;15.70;99.90
15967;DHT22;15175;48.154;11.534;2023-05-29T01:19:54;15.70;99.90
15967;DHT22;15175;48.154;11.534;2023-05-29T01:22:35;15.70;99.90
15967;DHT22;15175;48.154;11.534;2023-05-29T01:25:11;15.70;99.90
15967;DHT22;15175;48.154;11.534;2023-05-29T01:27:46;15.70;99.90
15967;DHT22;15175;48.154;11.534;2023-05-29T01:30:15;15.60;99.90
15967;DHT22;15175;48.154;11.534;2023-05-29T01:32:43;15.60;99.90
15967;DHT22;15175;48.154;11.534;2023-05-29T01:35:14;15.60;99.90
15967;DHT22;15175;48.154;11.534;2023-05-29T01:37:41;15.60;99.90
15967;DHT22;15175;48.154;11.534;2023-05-29T01:40:09;15.60;99.90
15967;DHT22;15175;48.154;11.534;2023-05-29T01:42:37;15.50;99.90
15967;DHT22;15175;48.154;11.534;2023-05-29T01:45:06;15.50;99.90
15967;DHT22;15175;48.154;11.534;2023-05-29T01:47:34;15.40;99.90
15967;DHT22;15175;48.154;11.534;2023-05-29T01:50:04;15.40;99.90
15967;DHT22;15175;48.154;11.534;2023-05-29T01:52:31;15.40;99.90
15967;DHT22;15175;48.154;11.534;2023-05-29T01:54:59;15.40;99.90
15967;DHT22;15175;48.154;11.534;2023-05-29T01:57:26;15.40;99.90
15967;DHT22;15175;48.154;11.534;2023-05-29T01:59:54;15.40;99.90
15967;DHT22;15175;48.154;11.534;2023-05-29T02:02:23;15.40;99.90
15967;DHT22;15175;48.154;11.534;2023-05-29T02:04:50;15.40;99.90
15967;DHT22;15175;48.154;11.534;2023-05-29T02:07:18;15.40;99.90
15967;DHT22;15175;48.154;11.534;2023-05-29T02:09:45;15.30;99.90
15967;DHT22;15175;48.154;11.534;2023-05-29T02:12:12;15.20;99.90
15967;DHT22;15175;48.154;11.534;2023-05-29T02:14:39;15.20;99.90
15967;DHT22;15175;48.154;11.534;2023-05-29T02:17:07;15.20;99.90
15967;DHT22;15175;48.154;11.534;2023-05-29T02:19:36;15.10;99.90
15967;DHT22;15175;48.154;11.534;2023-05-29T02:22:03;15.10;99.90
15967;DHT22;15175;48.154;11.534;2023-05-29T02:24:31;15.10;99.90
15967;DHT22;15175;48.154;11.534;2023-05-29T02:26:59;15.10;99.90
15967;DHT22;15175;48.154;11.534;2023-05-29T02:29:27;15.10;99.90
15967;DHT22;15175;48.154;11.534;2023-05-29T02:31:54;15.10;99.90
15967;DHT22;15175;48.154;11.534;2023-05-29T02:34:21;15.00;99.90
15967;DHT22;15175;48.154;11.534;2023-05-29T02:36:51;15.00;99.90
15967;DHT22;15175;48.154;11.534;2023-05-29T02:39:18;14.90;99.90
15967;DHT22;15175;48.154;11.534;2023-05-29T02:41:46;14.90;99.90
15967;DHT22;15175;48.154;11.534;2023-05-29T02:44:13;14.90;99.90
15967;DHT22;15175;48.154;11.534;2023-05-29T02:46:40;14.80;99.90
15967;DHT22;15175;48.154;11.534;2023-05-29T02:49:08;14.70;99.90
15967;DHT22;15175;48.154;11.534;2023-05-29T02:51:35;14.60;99.90
15967;DHT22;15175;48.154;11.534;2023-05-29T02:54:04;14.60;99.90
15967;DHT22;15175;48.154;11.534;2023-05-29T02:56:31;14.60;99.90
15967;DHT22;15175;48.154;11.534;2023-05-29T02:58:58;14.50;99.90
15967;DHT22;15175;48.154;11.534;2023-05-29T03:01:26;14.60;99.90
15967;DHT22;15175;48.154;11.534;2023-05-29T03:03:54;14.60;99.90
15967;DHT22;15175;48.154;11.534;2023-05-29T03:06:22;14.50;99.90
15967;DHT22;15175;48.154;11.534;2023-05-29T03:08:49;14.50;99.90
15967;DHT22;15175;48.154;11.534;2023-05-29T03:11:18;14.50;99.90
15967;DHT22;15175;48.154;11.534;2023-05-29T03:13:46;14.40;99.90
15967;DHT22;15175;48.154;11.534;2023-05-29T03:16:15;14.40;99.90
15967;DHT22;15175;48.154;11.534;2023-05-29T03:18:44;14.40;99.90
15967;DHT22;15175;48.154;11.534;2023-05-29T03:21:12;14.40;99.90
15967;DHT22;15175;48.154;11.534;2023-05-29T03:23:39;14.40;99.90
15967;DHT22;15175;48.154;11.534;2023-05-29T03:26:06;14.40;99.90
15967;DHT22;15175;48.154;11.534;2023-05-29T03:28:36;14.30;99.90
15967;DHT22;15175;48.154;11.534;2023-05-29T03:31:07;14.30;99.90
15967;DHT22;15175;48.154;11.534;2023-05-29T03:33:35;14.30;99.90
15967;DHT22;15175;48.154;11.534;2023-05-29T03:36:19;14.40;99.90
15967;DHT22;15175;48.154;11.534;2023-05-29T03:38:47;14.30;99.90
15967;DHT22;15175;48.154;11.534;2023-05-29T03:41:15;14.30;99.90
15967;DHT22;15175;48.154;11.534;2023-05-29T03:43:43;14.30;99.90
15967;DHT22;15175;48.154;11.534;2023-05-29T03:46:11;14.20;99.90
15967;DHT22;15175;48.154;11.534;2023-05-29T03:48:38;14.20;99.90
15967;DHT22;15175;48.154;11.534;2023-05-29T03:51:05;14.20;99.90
15967;DHT22;15175;48.154;11.534;2023-05-29T03:53:35;14.10;99.90
15967;DHT22;15175;48.154;11.534;2023-05-29T03:56:03;14.20;99.90
15967;DHT22;15175;48.154;11.534;2023-05-29T03:58:32;14.20;99.90
15967;DHT22;15175;48.154;11.534;2023-05-29T04:01:02;14.20;99.90
15967;DHT22;15175;48.154;11.534;2023-05-29T04:03:31;14.10;99.90
15967;DHT22;15175;48.154;11.534;2023-05-29T04:05:58;14.20;99.90
15967;DHT22;15175;48.154;11.534;2023-05-29T04:08:25;14.10;99.90
15967;DHT22;15175;48.154;11.534;2023-05-29T04:10:53;14.20;99.90
15967;DHT22;15175;48.154;11.534;2023-05-29T04:13:21;14.20;99.90
15967;DHT22;15175;48.154;11.534;2023-05-29T04:15:48;14.10;99.90
15967;DHT22;15175;48.154;11.534;2023-05-29T04:18:19;14.10;99.90
15967;DHT22;15175;48.154;11.534;2023-05-29T04:20:47;14.10;99.90
15967;DHT22;15175;48.154;11.534;2023-05-29T04:23:16;14.10;99.90
15967;DHT22;15175;48.154;11.534;2023-05-29T04:25:43;14.10;99.90
15967;DHT22;15175;48.154;11.534;2023-05-29T04:28:11;14.10;99.90
15967;DHT22;15175;48.154;11.534;2023-05-29T04:30:38;14.20;99.90
15967;DHT22;15175;48.154;11.534;2023-05-29T04:33:08;14.10;99.90
15967;DHT22;15175;48.154;11.534;2023-05-29T04:35:42;14.10;99.90
15967;DHT22;15175;48.154;11.534;2023-05-29T04:38:10;14.20;99.90
15967;DHT22;15175;48.154;11.534;2023-05-29T04:40:38;14.20;99.90
15967;DHT22;15175;48.154;11.534;2023-05-29T04:43:07;14.20;99.90
15967;DHT22;15175;48.154;11.534;2023-05-29T04:45:49;14.30;99.90
15967;DHT22;15175;48.154;11.534;2023-05-29T04:48:17;14.30;99.90
15967;DHT22;15175;48.154;11.534;2023-05-29T04:50:45;14.40;99.90
15967;DHT22;15175;48.154;11.534;2023-05-29T04:53:14;14.40;99.90
15967;DHT22;15175;48.154;11.534;2023-05-29T04:55:42;14.50;99.90
15967;DHT22;15175;48.154;11.534;2023-05-29T04:58:09;14.50;99.90
15967;DHT22;15175;48.154;11.534;2023-05-29T05:00:39;14.60;99.90
15967;DHT22;15175;48.154;11.534;2023-05-29T05:03:06;14.60;99.90
15967;DHT22;15175;48.154;11.534;2023-05-29T05:05:33;14.70;99.90
15967;DHT22;15175;48.154;11.534;2023-05-29T05:08:05;14.70;99.90
15967;DHT22;15175;48.154;11.534;2023-05-29T05:10:33;14.70;99.90
15967;DHT22;15175;48.154;11.534;2023-05-29T05:13:00;14.70;99.90
15967;DHT22;15175;48.154;11.534;2023-05-29T05:15:28;14.90;99.90
15967;DHT22;15175;48.154;11.534;2023-05-29T05:17:56;14.90;99.90
15967;DHT22;15175;48.154;11.534;2023-05-29T05:20:28;14.90;99.90
15967;DHT22;15175;48.154;11.534;2023-05-29T05:22:58;14.90;99.90
15967;DHT22;15175;48.154;11.534;2023-05-29T05:25:28;14.90;99.90
15967;DHT22;15175;48.154;11.534;2023-05-29T05:27:56;14.90;99.90
15967;DHT22;15175;48.154;11.534;2023-05-29T05:30:25;15.20;99.90
15967;DHT22;15175;48.154;11.534;2023-05-29T05:32:53;15.30;99.90
15967;DHT22;15175;48.154;11.534;2023-05-29T05:35:20;15.30;99.90
15967;DHT22;15175;48.154;11.534;2023-05-29T05:37:47;15.30;99.90
15967;DHT22;15175;48.154;11.534;2023-05-29T05:40:15;15.40;99.90
15967;DHT22;15175;48.154;11.534;2023-05-29T05:42:56;15.50;99.90
15967;DHT22;15175;48.154;11.534;2023-05-29T05:45:39;15.60;99.90
15967;DHT22;15175;48.154;11.534;2023-05-29T05:48:09;15.90;99.90
15967;DHT22;15175;48.154;11.534;2023-05-29T05:50:37;16.20;99.90
15967;DHT22;15175;48.154;11.534;2023-05-29T05:53:04;16.60;99.90
15967;DHT22;15175;48.154;11.534;2023-05-29T05:55:32;16.90;99.90
15967;DHT22;15175;48.154;11.534;2023-05-29T05:58:00;17.10;99.90
15967;DHT22;15175;48.154;11.534;2023-05-29T06:00:28;17.40;99.90
15967;DHT22;15175;48.154;11.534;2023-05-29T06:02:56;17.40;99.90
15967;DHT22;15175;48.154;11.534;2023-05-29T06:05:38;17.40;99.90
15967;DHT22;15175;48.154;11.534;2023-05-29T06:08:06;17.50;99.90
15967;DHT22;15175;48.154;11.534;2023-05-29T06:10:35;17.60;99.90
15967;DHT22;15175;48.154;11.534;2023-05-29T06:13:03;17.70;99.90
15967;DHT22;15175;48.154;11.534;2023-05-29T06:15:41;17.80;99.90
15967;DHT22;15175;48.154;11.534;2023-05-29T06:18:08;18.30;99.90
15967;DHT22;15175;48.154;11.534;2023-05-29T06:20:37;18.50;99.90
15967;DHT22;15175;48.154;11.534;2023-05-29T06:23:05;18.80;99.90
15967;DHT22;15175;48.154;11.534;2023-05-29T06:25:32;19.10;99.90
15967;DHT22;15175;48.154;11.534;2023-05-29T06:28:00;19.20;99.90
15967;DHT22;15175;48.154;11.534;2023-05-29T06:30:29;19.40;99.90
15967;DHT22;15175;48.154;11.534;2023-05-29T06:32:56;19.90;99.40
15967;DHT22;15175;48.154;11.534;2023-05-29T06:35:29;20.20;98.70
15967;DHT22;15175;48.154;11.534;2023-05-29T06:37:56;20.30;98.60
15967;DHT22;15175;48.154;11.534;2023-05-29T06:40:25;20.60;97.90
15967;DHT22;15175;48.154;11.534;2023-05-29T06:42:52;20.70;97.90
15967;DHT22;15175;48.154;11.534;2023-05-29T06:45:40;20.90;97.70
15967;DHT22;15175;48.154;11.534;2023-05-29T06:48:08;21.10;96.90
15967;DHT22;15175;48.154;11.534;2023-05-29T06:50:38;21.10;96.90
15967;DHT22;15175;48.154;11.534;2023-05-29T06:53:28;21.20;96.80
15967;DHT22;15175;48.154;11.534;2023-05-29T06:55:56;21.40;96.20
15967;DHT22;15175;48.154;11.534;2023-05-29T06:58:23;21.60;96.20
15967;DHT22;15175;48.154;11.534;2023-05-29T07:00:52;21.80;95.40
15967;DHT22;15175;48.154;11.534;2023-05-29T07:03:28;21.90;95.10
15967;DHT22;15175;48.154;11.534;2023-05-29T07:05:56;21.90;94.80
15967;DHT22;15175;48.154;11.534;2023-05-29T07:08:24;21.90;94.40
15967;DHT22;15175;48.154;11.534;2023-05-29T07:10:52;22.00;94.60
15967;DHT22;15175;48.154;11.534;2023-05-29T07:13:20;22.00;94.70
15967;DHT22;15175;48.154;11.534;2023-05-29T07:15:48;22.20;94.50
15967;DHT22;15175;48.154;11.534;2023-05-29T07:18:18;22.40;94.20
15967;DHT22;15175;48.154;11.534;2023-05-29T07:20:45;22.50;94.50
15967;DHT22;15175;48.154;11.534;2023-05-29T07:23:16;22.70;94.50
15967;DHT22;15175;48.154;11.534;2023-05-29T07:25:43;22.80;94.50
15967;DHT22;15175;48.154;11.534;2023-05-29T07:28:10;23.00;94.30
15967;DHT22;15175;48.154;11.534;2023-05-29T07:30:37;23.20;93.80
15967;DHT22;15175;48.154;11.534;2023-05-29T07:33:05;23.20;93.90
15967;DHT22;15175;48.154;11.534;2023-05-29T07:35:33;23.30;93.50
15967;DHT22;15175;48.154;11.534;2023-05-29T07:38:03;23.40;93.30
15967;DHT22;15175;48.154;11.534;2023-05-29T07:40:31;23.40;93.60
15967;DHT22;15175;48.154;11.534;2023-05-29T07:42:59;23.60;93.40
15967;DHT22;15175;48.154;11.534;2023-05-29T07:45:40;23.80;93.10
15967;DHT22;15175;48.154;11.534;2023-05-29T07:48:07;23.80;93.10
15967;DHT22;15175;48.154;11.534;2023-05-29T07:50:36;23.70;93.40
15967;DHT22;15175;48.154;11.534;2023-05-29T07:53:04;23.90;93.30
15967;DHT22;15175;48.154;11.534;2023-05-29T07:55:34;24.10;92.70
15967;DHT22;15175;48.154;11.534;2023-05-29T07:58:01;24.10;92.70
15967;DHT22;15175;48.154;11.534;2023-05-29T08:00:29;24.00;92.50
15967;DHT22;15175;48.154;11.534;2023-05-29T08:02:56;23.90;92.40
15967;DHT22;15175;48.154;11.534;2023-05-29T08:05:29;24.00;92.50
15967;DHT22;15175;48.154;11.534;2023-05-29T08:08:00;24.10;92.90
15967;DHT22;15175;48.154;11.534;2023-05-29T08:10:27;24.10;92.90
15967;DHT22;15175;48.154;11.534;2023-05-29T08:12:55;24.20;93.00
15967;DHT22;15175;48.154;11.534;2023-05-29T08:15:22;24.50;91.90
15967;DHT22;15175;48.154;11.534;2023-05-29T08:17:50;24.70;91.50
15967;DHT22;15175;48.154;11.534;2023-05-29T08:20:17;24.70;91.50
15967;DHT22;15175;48.154;11.534;2023-05-29T08:22:44;24.90;91.60
15967;DHT22;15175;48.154;11.534;2023-05-29T08:25:13;25.10;91.40
15967;DHT22;15175;48.154;11.534;2023-05-29T08:27:40;25.30;91.00
15967;DHT22;15175;48.154;11.534;2023-05-29T08:30:08;25.50;90.70
15967;DHT22;15175;48.154;11.534;2023-05-29T08:32:35;25.50;90.50
15967;DHT22;15175;48.154;11.534;2023-05-29T08:35:03;25.60;90.10
15967;DHT22;15175;48.154;11.534;2023-05-29T08:37:30;25.40;90.50
15967;DHT22;15175;48.154;11.534;2023-05-29T08:39:57;25.30;90.40
15967;DHT22;15175;48.154;11.534;2023-05-29T08:42:29;25.30;90.70
15967;DHT22;15175;48.154;11.534;2023-05-29T08:45:02;25.30;90.40
15967;DHT22;15175;48.154;11.534;2023-05-29T08:47:32;25.10;90.10
15967;DHT22;15175;48.154;11.534;2023-05-29T08:50:01;25.20;90.60
15967;DHT22;15175;48.154;11.534;2023-05-29T08:52:31;25.30;90.60
15967;DHT22;15175;48.154;11.534;2023-05-29T08:55:01;25.40;90.70
15967;DHT22;15175;48.154;11.534;2023-05-29T08:57:31;25.50;90.90
15967;DHT22;15175;48.154;11.534;2023-05-29T08:59:58;25.80;90.50
15967;DHT22;15175;48.154;11.534;2023-05-29T09:02:26;26.00;90.20
15967;DHT22;15175;48.154;11.534;2023-05-29T09:04:54;26.20;90.00
15967;DHT22;15175;48.154;11.534;2023-05-29T09:07:22;26.30;89.20
15967;DHT22;15175;48.154;11.534;2023-05-29T09:09:51;26.30;88.50
15967;DHT22;15175;48.154;11.534;2023-05-29T09:12:19;26.00;88.70
15967;DHT22;15175;48.154;11.534;2023-05-29T09:14:47;25.80;89.30
15967;DHT22;15175;48.154;11.534;2023-05-29T09:17:14;25.90;88.50
15967;DHT22;15175;48.154;11.534;2023-05-29T09:19:42;26.00;88.50
15967;DHT22;15175;48.154;11.534;2023-05-29T09:22:12;26.10;87.90
15967;DHT22;15175;48.154;11.534;2023-05-29T09:24:41;26.10;88.30
15967;DHT22;15175;48.154;11.534;2023-05-29T09:27:09;26.10;87.80
15967;DHT22;15175;48.154;11.534;2023-05-29T09:29:39;26.10;86.80
15967;DHT22;15175;48.154;11.534;2023-05-29T09:32:09;26.00;87.60
15967;DHT22;15175;48.154;11.534;2023-05-29T09:34:37;26.00;86.80
15967;DHT22;15175;48.154;11.534;2023-05-29T09:37:07;26.20;86.70
15967;DHT22;15175;48.154;11.534;2023-05-29T09:39:45;26.50;85.70
15967;DHT22;15175;48.154;11.534;2023-05-29T09:42:13;26.60;84.60
15967;DHT22;15175;48.154;11.534;2023-05-29T09:44:42;26.70;84.60
15967;DHT22;15175;48.154;11.534;2023-05-29T09:47:14;26.70;84.20
15967;DHT22;15175;48.154;11.534;2023-05-29T09:49:43;26.80;83.90
15967;DHT22;15175;48.154;11.534;2023-05-29T09:52:12;26.70;81.50
15967;DHT22;15175;48.154;11.534;2023-05-29T09:54:42;26.60;82.80
15967;DHT22;15175;48.154;11.534;2023-05-29T09:57:12;26.70;83.20
15967;DHT22;15175;48.154;11.534;2023-05-29T09:59:41;26.90;81.90
15967;DHT22;15175;48.154;11.534;2023-05-29T10:02:11;27.10;78.80
15967;DHT22;15175;48.154;11.534;2023-05-29T10:04:39;27.20;77.60
15967;DHT22;15175;48.154;11.534;2023-05-29T10:07:09;27.10;78.30
15967;DHT22;15175;48.154;11.534;2023-05-29T10:09:41;27.20;78.70
15967;DHT22;15175;48.154;11.534;2023-05-29T10:12:11;27.30;79.20
15967;DHT22;15175;48.154;11.534;2023-05-29T10:14:40;27.10;77.90
15967;DHT22;15175;48.154;11.534;2023-05-29T10:17:12;27.00;76.50
15967;DHT22;15175;48.154;11.534;2023-05-29T10:19:42;26.70;76.70
15967;DHT22;15175;48.154;11.534;2023-05-29T10:22:10;26.60;72.50
15967;DHT22;15175;48.154;11.534;2023-05-29T10:24:38;26.80;75.70
15967;DHT22;15175;48.154;11.534;2023-05-29T10:27:05;27.00;74.70
15967;DHT22;15175;48.154;11.534;2023-05-29T10:29:37;27.30;74.60
15967;DHT22;15175;48.154;11.534;2023-05-29T10:32:16;27.70;74.00
15967;DHT22;15175;48.154;11.534;2023-05-29T10:34:50;27.80;74.60
15967;DHT22;15175;48.154;11.534;2023-05-29T10:37:31;27.80;74.70
15967;DHT22;15175;48.154;11.534;2023-05-29T10:40:06;27.90;73.40
15967;DHT22;15175;48.154;11.534;2023-05-29T10:42:41;27.70;75.40
15967;DHT22;15175;48.154;11.534;2023-05-29T10:45:10;27.90;75.30
15967;DHT22;15175;48.154;11.534;2023-05-29T10:47:39;28.00;75.00
15967;DHT22;15175;48.154;11.534;2023-05-29T10:50:06;28.30;73.60
15967;DHT22;15175;48.154;11.534;2023-05-29T10:52:34;28.30;74.40
15967;DHT22;15175;48.154;11.534;2023-05-29T10:55:02;27.80;74.30
15967;DHT22;15175;48.154;11.534;2023-05-29T10:57:30;27.80;75.00
15967;DHT22;15175;48.154;11.534;2023-05-29T11:00:06;27.80;75.70
15967;DHT22;15175;48.154;11.534;2023-05-29T11:02:41;27.90;73.90
15967;DHT22;15175;48.154;11.534;2023-05-29T11:05:21;27.80;74.40
15967;DHT22;15175;48.154;11.534;2023-05-29T11:07:56;28.00;73.20
15967;DHT22;15175;48.154;11.534;2023-05-29T11:10:43;27.90;74.10
15967;DHT22;15175;48.154;11.534;2023-05-29T11:13:12;27.80;74.00
15967;DHT22;15175;48.154;11.534;2023-05-29T11:16:04;27.60;72.80
15967;DHT22;15175;48.154;11.534;2023-05-29T11:18:39;27.00;73.10
15967;DHT22;15175;48.154;11.534;2023-05-29T11:21:21;26.90;75.50
15967;DHT22;15175;48.154;11.534;2023-05-29T11:23:51;27.10;75.10
15967;DHT22;15175;48.154;11.534;2023-05-29T11:26:19;27.30;73.00
15967;DHT22;15175;48.154;11.534;2023-05-29T11:28:47;27.20;71.00
15967;DHT22;15175;48.154;11.534;2023-05-29T11:31:15;26.90;72.90
15967;DHT22;15175;48.154;11.534;2023-05-29T11:33:48;27.00;72.70
15967;DHT22;15175;48.154;11.534;2023-05-29T11:36:17;27.20;71.30
15967;DHT22;15175;48.154;11.534;2023-05-29T11:38:45;27.40;70.30
15967;DHT22;15175;48.154;11.534;2023-05-29T11:41:13;27.50;70.00
15967;DHT22;15175;48.154;11.534;2023-05-29T11:43:40;27.40;70.60
15967;DHT22;15175;48.154;11.534;2023-05-29T11:46:17;27.40;71.30
15967;DHT22;15175;48.154;11.534;2023-05-29T11:48:47;27.30;70.00
15967;DHT22;15175;48.154;11.534;2023-05-29T11:51:14;27.20;71.00
15967;DHT22;15175;48.154;11.534;2023-05-29T11:53:41;26.90;70.20
15967;DHT22;15175;48.154;11.534;2023-05-29T11:56:09;26.60;70.60
15967;DHT22;15175;48.154;11.534;2023-05-29T11:58:37;26.30;70.00
15967;DHT22;15175;48.154;11.534;2023-05-29T12:01:05;26.10;72.30
15967;DHT22;15175;48.154;11.534;2023-05-29T12:03:38;26.30;69.40
15967;DHT22;15175;48.154;11.534;2023-05-29T12:06:09;25.90;68.80
15967;DHT22;15175;48.154;11.534;2023-05-29T12:08:36;25.50;70.40
15967;DHT22;15175;48.154;11.534;2023-05-29T12:11:04;25.50;72.40
15967;DHT22;15175;48.154;11.534;2023-05-29T12:13:32;25.60;70.20
15967;DHT22;15175;48.154;11.534;2023-05-29T12:16:01;25.30;71.50
15967;DHT22;15175;48.154;11.534;2023-05-29T12:18:30;25.30;70.80
15967;DHT22;15175;48.154;11.534;2023-05-29T12:20:57;25.50;72.30
15967;DHT22;15175;48.154;11.534;2023-05-29T12:23:27;25.70;73.50
15967;DHT22;15175;48.154;11.534;2023-05-29T12:25:55;25.80;73.20
15967;DHT22;15175;48.154;11.534;2023-05-29T12:28:22;25.90;71.90
15967;DHT22;15175;48.154;11.534;2023-05-29T12:30:49;25.90;71.90
15967;DHT22;15175;48.154;11.534;2023-05-29T12:33:28;26.00;72.60
15967;DHT22;15175;48.154;11.534;2023-05-29T12:36:01;25.90;68.50
15967;DHT22;15175;48.154;11.534;2023-05-29T12:38:30;25.80;68.60
15967;DHT22;15175;48.154;11.534;2023-05-29T12:40:57;25.40;70.50
15967;DHT22;15175;48.154;11.534;2023-05-29T12:43:24;25.10;71.70
15967;DHT22;15175;48.154;11.534;2023-05-29T12:45:54;25.00;72.40
15967;DHT22;15175;48.154;11.534;2023-05-29T12:48:27;25.00;75.00
15967;DHT22;15175;48.154;11.534;2023-05-29T12:50:54;24.90;75.30
15967;DHT22;15175;48.154;11.534;2023-05-29T12:53:29;24.90;75.10
15967;DHT22;15175;48.154;11.534;2023-05-29T12:55:57;24.70;74.70
15967;DHT22;15175;48.154;11.534;2023-05-29T12:58:24;24.80;76.20
15967;DHT22;15175;48.154;11.534;2023-05-29T13:00:53;24.70;75.40
15967;DHT22;15175;48.154;11.534;2023-05-29T13:03:22;24.70;75.50
15967;DHT22;15175;48.154;11.534;2023-05-29T13:05:50;24.50;74.90
15967;DHT22;15175;48.154;11.534;2023-05-29T13:08:19;24.50;74.10
15967;DHT22;15175;48.154;11.534;2023-05-29T13:10:48;24.50;75.10
15967;DHT22;15175;48.154;11.534;2023-05-29T13:13:15;24.50;76.80
15967;DHT22;15175;48.154;11.534;2023-05-29T13:15:42;24.60;78.50
15967;DHT22;15175;48.154;11.534;2023-05-29T13:18:09;24.50;78.50
15967;DHT22;15175;48.154;11.534;2023-05-29T13:20:36;24.40;77.50
15967;DHT22;15175;48.154;11.534;2023-05-29T13:23:03;24.30;79.00
15967;DHT22;15175;48.154;11.534;2023-05-29T13:25:30;24.20;79.80
15967;DHT22;15175;48.154;11.534;2023-05-29T13:27:59;24.20;78.20
15967;DHT22;15175;48.154;11.534;2023-05-29T13:30:26;24.10;77.20
15967;DHT22;15175;48.154;11.534;2023-05-29T13:32:53;24.20;76.50
15967;DHT22;15175;48.154;11.534;2023-05-29T13:35:21;24.20;75.90
15967;DHT22;15175;48.154;11.534;2023-05-29T13:37:48;24.20;75.60
15967;DHT22;15175;48.154;11.534;2023-05-29T13:40:15;24.30;74.90
15967;DHT22;15175;48.154;11.534;2023-05-29T13:42:42;24.40;76.50
15967;DHT22;15175;48.154;11.534;2023-05-29T13:45:10;24.40;77.80
15967;DHT22;15175;48.154;11.534;2023-05-29T13:47:39;24.30;78.80
15967;DHT22;15175;48.154;11.534;2023-05-29T13:50:07;24.20;77.80
15967;DHT22;15175;48.154;11.534;2023-05-29T13:52:34;24.20;76.90
15967;DHT22;15175;48.154;11.534;2023-05-29T13:55:02;24.20;75.70
15967;DHT22;15175;48.154;11.534;2023-05-29T13:57:33;24.20;78.30
15967;DHT22;15175;48.154;11.534;2023-05-29T14:00:02;24.20;79.90
15967;DHT22;15175;48.154;11.534;2023-05-29T14:02:32;24.20;80.30
15967;DHT22;15175;48.154;11.534;2023-05-29T14:04:59;24.20;80.30
15967;DHT22;15175;48.154;11.534;2023-05-29T14:07:26;24.30;80.10
15967;DHT22;15175;48.154;11.534;2023-05-29T14:09:54;24.40;79.90
15967;DHT22;15175;48.154;11.534;2023-05-29T14:12:21;24.40;78.90
15967;DHT22;15175;48.154;11.534;2023-05-29T14:14:48;24.40;77.40
15967;DHT22;15175;48.154;11.534;2023-05-29T14:17:15;24.50;78.10
15967;DHT22;15175;48.154;11.534;2023-05-29T14:19:43;24.40;78.40
15967;DHT22;15175;48.154;11.534;2023-05-29T14:22:13;24.40;77.20
15967;DHT22;15175;48.154;11.534;2023-05-29T14:24:40;24.20;77.70
15967;DHT22;15175;48.154;11.534;2023-05-29T14:27:07;24.20;77.90
15967;DHT22;15175;48.154;11.534;2023-05-29T14:29:34;24.20;77.80
15967;DHT22;15175;48.154;11.534;2023-05-29T14:32:01;24.20;77.40
15967;DHT22;15175;48.154;11.534;2023-05-29T14:34:28;24.10;77.40
15967;DHT22;15175;48.154;11.534;2023-05-29T14:36:57;24.00;77.00
15967;DHT22;15175;48.154;11.534;2023-05-29T14:39:24;23.90;76.60
15967;DHT22;15175;48.154;11.534;2023-05-29T14:41:51;23.90;76.70
15967;DHT22;15175;48.154;11.534;2023-05-29T14:44:18;23.90;76.80
15967;DHT22;15175;48.154;11.534;2023-05-29T14:46:46;23.90;77.60
15967;DHT22;15175;48.154;11.534;2023-05-29T14:49:13;24.00;77.90
15967;DHT22;15175;48.154;11.534;2023-05-29T14:51:40;24.00;78.60
15967;DHT22;15175;48.154;11.534;2023-05-29T14:54:09;23.90;79.20
15967;DHT22;15175;48.154;11.534;2023-05-29T14:56:37;23.90;80.20
15967;DHT22;15175;48.154;11.534;2023-05-29T14:59:04;24.00;80.60
15967;DHT22;15175;48.154;11.534;2023-05-29T15:01:32;24.00;80.60
15967;DHT22;15175;48.154;11.534;2023-05-29T15:03:59;24.00;80.60
15967;DHT22;15175;48.154;11.534;2023-05-29T15:06:26;23.90;80.00
15967;DHT22;15175;48.154;11.534;2023-05-29T15:08:53;23.80;80.30
15967;DHT22;15175;48.154;11.534;2023-05-29T15:11:23;23.80;80.40
15967;DHT22;15175;48.154;11.534;2023-05-29T15:13:50;23.80;80.50
15967;DHT22;15175;48.154;11.534;2023-05-29T15:16:17;23.70;80.60
15967;DHT22;15175;48.154;11.534;2023-05-29T15:18:45;23.60;81.00
15967;DHT22;15175;48.154;11.534;2023-05-29T15:21:12;23.60;81.10
15967;DHT22;15175;48.154;11.534;2023-05-29T15:23:39;23.50;81.10
15967;DHT22;15175;48.154;11.534;2023-05-29T15:26:09;23.50;81.80